^^
Saratoga-Weather Station Historical Data
Daily Summary for November 10, 2020 Units:  English    Metric   Both
Daily Weekly Monthly Yearly Custom
  High: Low: Average:
Temperature: 46.8 °F 44.2 °F 45.5 °F
Dew Point: 45.7 °F 43.2 °F 44.4 °F
Humidity: 97% 96% 96%
Wind Speed: 0mph 0mph 0mph
Wind Gust: 0mph - -
Wind- -
Pressure: 30.2 in 30.2 in -
Precipitation: 0.01 in    
Historical Graphs
 
 
Tabular Data for November 10, 2020
Time Temperature Dew Point Pressure Wind Wind Speed Wind Gust Humidity Rainfall Rate (Hourly) solar
00:02 46.4 °F 45.3 °F 30.2 in Calm     96% 0 in 0 W/m2
00:07 46.6 °F 45.5 °F 30.2 in Calm     96% 0 in 0 W/m2
00:12 46.8 °F 45.7 °F 30.2 in Calm     96% 0 in 0 W/m2
00:17 46.8 °F 45.7 °F 30.2 in Calm     96% 0 in 0 W/m2
00:22 46.6 °F 45.5 °F 30.2 in Calm     96% 0 in 0 W/m2
00:27 46.4 °F 45.3 °F 30.2 in Calm     96% 0 in 0 W/m2
00:32 46.4 °F 45.3 °F 30.2 in Calm     96% 0 in 0 W/m2
00:37 46.4 °F 45.3 °F 30.2 in Calm     96% 0 in 0 W/m2
00:42 46.2 °F 45.1 °F 30.2 in Calm     96% 0 in 0 W/m2
00:47 46 °F 45 °F 30.2 in Calm     96% 0 in 0 W/m2
00:52 46 °F 45 °F 30.2 in Calm     96% 0 in 0 W/m2
00:57 46 °F 45 °F 30.2 in Calm     96% 0 in 0 W/m2
01:02 46 °F 45 °F 30.2 in Calm     96% 0 in 0 W/m2
01:07 46.2 °F 45.5 °F 30.2 in Calm     97% 0 in 0 W/m2
01:12 46.2 °F 45.5 °F 30.2 in Calm     97% 0 in 0 W/m2
01:17 46.2 °F 45.1 °F 30.2 in Calm     96% 0 in 0 W/m2
01:22 46.2 °F 45.1 °F 30.2 in Calm     96% 0 in 0 W/m2
01:27 46 °F 45 °F 30.2 in Calm     96% 0 in 0 W/m2
01:32 46 °F 45 °F 30.2 in Calm     96% 0 in 0 W/m2
01:37 46 °F 45 °F 30.2 in Calm     96% 0 in 0 W/m2
01:42 45.9 °F 44.8 °F 30.2 in Calm     96% 0 in 0 W/m2
01:47 45.7 °F 44.6 °F 30.2 in Calm     96% 0 in 0 W/m2
01:52 45.7 °F 44.6 °F 30.2 in Calm     96% 0 in 0 W/m2
01:57 45.3 °F 44.2 °F 30.2 in Calm     96% 0 in 0 W/m2
02:02 45.1 °F 44.1 °F 30.2 in Calm     96% 0 in 0 W/m2
02:07 45.1 °F 44.1 °F 30.2 in Calm     96% 0 in 0 W/m2
02:12 45 °F 43.9 °F 30.2 in Calm     96% 0 in 0 W/m2
02:17 45 °F 43.9 °F 30.2 in Calm     96% 0 in 0 W/m2
02:22 45 °F 43.9 °F 30.2 in Calm     96% 0 in 0 W/m2
02:27 45.1 °F 44.1 °F 30.2 in Calm     96% 0 in 0 W/m2
02:32 45.1 °F 44.1 °F 30.2 in Calm     96% 0 in 0 W/m2
02:37 45 °F 43.9 °F 30.2 in Calm     96% 0 in 0 W/m2
02:42 44.8 °F 43.7 °F 30.2 in Calm     96% 0 in 0 W/m2
02:47 45 °F 43.9 °F 30.2 in Calm     96% 0 in 0 W/m2
02:52 45 °F 44.2 °F 30.2 in Calm     97% 0 in 0 W/m2
02:57 45.1 °F 44.4 °F 30.2 in Calm     97% 0 in 0 W/m2
03:02 45.1 °F 44.4 °F 30.2 in Calm     97% 0 in 0 W/m2
03:07 45 °F 44.2 °F 30.2 in Calm     97% 0 in 0 W/m2
03:12 44.8 °F 44.1 °F 30.2 in Calm     97% 0 in 0 W/m2
03:17 44.6 °F 43.9 °F 30.2 in Calm     97% 0 in 0 W/m2
03:22 44.4 °F 43.3 °F 30.2 in Calm     96% 0 in 0 W/m2
03:27 44.2 °F 43.2 °F 30.2 in Calm     96% 0 in 0 W/m2
03:32 44.4 °F 43.3 °F 30.2 in Calm     96% 0 in 0 W/m2
03:37 44.2 °F 43.5 °F 30.2 in Calm     97% 0 in 0 W/m2
03:42 44.2 °F 43.5 °F 30.2 in Calm     97% 0 in 0 W/m2
03:47 44.6 °F 43.9 °F 30.2 in Calm     97% 0.01 in 0 W/m2
03:52 45 °F 44.2 °F 30.2 in Calm     97% 0.01 in 0 W/m2
03:57 45.1 °F 44.4 °F 30.2 in Calm     97% 0.01 in 0 W/m2
04:02 45.5 °F 44.8 °F 30.2 in Calm     97% 0.01 in 0 W/m2
04:07 45.7 °F 45 °F 30.2 in Calm     97% 0.01 in 0 W/m2
04:12 45.7 °F 45 °F 30.2 in Calm     97% 0.01 in 0 W/m2
04:17 45.7 °F 45 °F 30.2 in Calm     97% 0.01 in 0 W/m2
04:22 45.7 °F 45 °F 30.2 in Calm     97% 0.01 in 0 W/m2
04:27 45.7 °F 45 °F 30.2 in Calm     97% 0.01 in 0 W/m2
04:32 45.3 °F 44.6 °F 30.2 in Calm     97% 0.01 in 0 W/m2
04:37 45.1 °F 44.4 °F 30.2 in Calm     97% 0.01 in 0 W/m2
04:42 45 °F 44.2 °F 30.2 in Calm     97% 0.01 in 0 W/m2
04:47 45 °F 44.2 °F 30.2 in Calm     97% 0 in 0 W/m2
04:52 44.8 °F 44.1 °F 30.2 in Calm     97% 0 in 0 W/m2
04:57 44.4 °F 43.3 °F 30.2 in Calm     96% 0 in 0 W/m2
05:02 44.4 °F 43.7 °F 30.2 in Calm     97% 0 in 0 W/m2
05:07 44.2 °F 43.5 °F 30.2 in Calm     97% 0 in 0 W/m2
Juneau County Weather
Compliments of Weather Underground - 2 mb